Hasty, Arkansas
Current Conditions -  °F | °C
As of 1:53 AM on Tuesday 21 Oct 2014 (Local Time) from KHRO Reporting Station
Haze Haze  
Wind Chill: 55°   Ceiling: Unl
Heat Index: 55°   Visibility: 4mi
Dew Point: 54°   Wind: 5mph
Humidity: 96%   Direction: 340°NNW
Pressure: 30.08"   Gusts: NA
Location:  36.02°N, 93.05°W
Report Text: KHRO 210653Z AUTO 34004KT 4SM BR CLR 13/12 A3008 RMK AO2 SLP180 T01280122
Loading
Personal Weather Stations






























Interactive Weather Map
Tropical Storm Tracking
New forecast layout! Learn more

10-Day Weather Forecast

Advertisements
Track Severe Weather on mobile